sensor_id;sensor_type;location;lat;lon;timestamp;pressure;altitude;pressure_sealevel;temperature;humidity
9325;BME280;4701;51.566;6.776;2023-05-09T07:03:37;101116.41;;;16.46;91.54
9325;BME280;4701;51.566;6.776;2023-05-09T07:06:39;101103.91;;;16.53;92.41
9325;BME280;4701;51.566;6.776;2023-05-09T07:09:41;101100.50;;;16.61;92.99
9325;BME280;4701;51.566;6.776;2023-05-09T07:12:43;101096.25;;;16.69;93.00
9325;BME280;4701;51.566;6.776;2023-05-09T07:15:45;101100.28;;;16.77;92.97
9325;BME280;4701;51.566;6.776;2023-05-09T07:18:48;101091.66;;;16.83;92.76
9325;BME280;4701;51.566;6.776;2023-05-09T07:21:50;101085.75;;;16.90;92.23
9325;BME280;4701;51.566;6.776;2023-05-09T07:24:52;101089.75;;;16.97;92.03
9325;BME280;4701;51.566;6.776;2023-05-09T07:27:54;101082.75;;;17.05;91.68
9325;BME280;4701;51.566;6.776;2023-05-09T07:30:56;101081.53;;;17.11;91.43
9325;BME280;4701;51.566;6.776;2023-05-09T07:33:59;101077.59;;;17.17;90.91
9325;BME280;4701;51.566;6.776;2023-05-09T07:37:01;101070.03;;;17.23;90.60
9325;BME280;4701;51.566;6.776;2023-05-09T07:40:04;101071.28;;;17.30;90.20
9325;BME280;4701;51.566;6.776;2023-05-09T07:43:06;101066.47;;;17.36;89.86
9325;BME280;4701;51.566;6.776;2023-05-09T07:46:08;101065.59;;;17.40;89.69
9325;BME280;4701;51.566;6.776;2023-05-09T07:49:11;101061.91;;;17.45;89.18
9325;BME280;4701;51.566;6.776;2023-05-09T07:52:13;101055.19;;;17.51;88.88
9325;BME280;4701;51.566;6.776;2023-05-09T07:55:16;101044.66;;;17.53;88.59
9325;BME280;4701;51.566;6.776;2023-05-09T07:58:18;101048.44;;;17.57;88.03
9325;BME280;4701;51.566;6.776;2023-05-09T08:01:20;101045.59;;;17.62;87.84
9325;BME280;4701;51.566;6.776;2023-05-09T08:04:24;101034.50;;;17.67;87.54
9325;BME280;4701;51.566;6.776;2023-05-09T08:07:26;101036.63;;;17.70;87.17
9325;BME280;4701;51.566;6.776;2023-05-09T08:10:28;101036.53;;;17.75;87.07
9325;BME280;4701;51.566;6.776;2023-05-09T08:13:31;101034.78;;;17.80;86.85
9325;BME280;4701;51.566;6.776;2023-05-09T08:16:33;101019.28;;;17.84;86.49
9325;BME280;4701;51.566;6.776;2023-05-09T08:19:36;101015.56;;;17.88;86.15
9325;BME280;4701;51.566;6.776;2023-05-09T08:22:38;101020.19;;;17.93;85.71
9325;BME280;4701;51.566;6.776;2023-05-09T08:25:41;101001.06;;;17.96;85.32
9325;BME280;4701;51.566;6.776;2023-05-09T08:28:43;101003.72;;;18.01;85.02
9325;BME280;4701;51.566;6.776;2023-05-09T08:31:45;100999.19;;;18.05;84.83
9325;BME280;4701;51.566;6.776;2023-05-09T08:34:48;101002.97;;;18.09;84.14
9325;BME280;4701;51.566;6.776;2023-05-09T08:37:50;101002.03;;;18.14;83.89
9325;BME280;4701;51.566;6.776;2023-05-09T08:40:52;100998.34;;;18.19;83.40
9325;BME280;4701;51.566;6.776;2023-05-09T08:43:54;100988.00;;;18.24;83.42
9325;BME280;4701;51.566;6.776;2023-05-09T08:46:58;100988.69;;;18.30;82.80
9325;BME280;4701;51.566;6.776;2023-05-09T08:50:02;100988.91;;;18.33;82.49
9325;BME280;4701;51.566;6.776;2023-05-09T08:53:05;100983.25;;;18.38;82.31
9325;BME280;4701;51.566;6.776;2023-05-09T08:56:07;100987.03;;;18.42;81.48
9325;BME280;4701;51.566;6.776;2023-05-09T08:59:09;100977.78;;;18.47;81.26
9325;BME280;4701;51.566;6.776;2023-05-09T09:02:11;100961.44;;;18.50;81.18
9325;BME280;4701;51.566;6.776;2023-05-09T09:05:16;100962.97;;;18.57;80.24
9325;BME280;4701;51.566;6.776;2023-05-09T09:08:18;100952.94;;;18.61;79.55
9325;BME280;4701;51.566;6.776;2023-05-09T09:11:21;100949.53;;;18.64;78.29
9325;BME280;4701;51.566;6.776;2023-05-09T09:14:23;100950.53;;;18.68;77.28
9325;BME280;4701;51.566;6.776;2023-05-09T09:17:27;100944.38;;;18.71;76.28
9325;BME280;4701;51.566;6.776;2023-05-09T09:20:33;100946.50;;;18.74;75.82
9325;BME280;4701;51.566;6.776;2023-05-09T09:23:37;100943.13;;;18.77;75.70
9325;BME280;4701;51.566;6.776;2023-05-09T09:26:45;100941.34;;;18.81;75.94
9325;BME280;4701;51.566;6.776;2023-05-09T09:29:47;100938.75;;;18.84;75.81
9325;BME280;4701;51.566;6.776;2023-05-09T09:32:49;100936.69;;;18.90;75.75
9325;BME280;4701;51.566;6.776;2023-05-09T09:35:54;100936.06;;;18.93;75.88
9325;BME280;4701;51.566;6.776;2023-05-09T09:38:57;100929.56;;;18.98;75.18
9325;BME280;4701;51.566;6.776;2023-05-09T09:42:09;100923.41;;;19.01;74.73
9325;BME280;4701;51.566;6.776;2023-05-09T09:45:12;100918.88;;;19.05;74.50
9325;BME280;4701;51.566;6.776;2023-05-09T09:48:14;100921.50;;;19.10;73.83
9325;BME280;4701;51.566;6.776;2023-05-09T09:51:17;100913.72;;;19.12;73.06
9325;BME280;4701;51.566;6.776;2023-05-09T09:54:20;100917.44;;;19.16;73.09
9325;BME280;4701;51.566;6.776;2023-05-09T09:57:35;100906.91;;;19.18;72.83
9325;BME280;4701;51.566;6.776;2023-05-09T10:00:37;100897.63;;;19.22;72.45
9325;BME280;4701;51.566;6.776;2023-05-09T10:03:40;100897.81;;;19.26;71.75
9325;BME280;4701;51.566;6.776;2023-05-09T10:06:52;100890.03;;;19.28;72.23
9325;BME280;4701;51.566;6.776;2023-05-09T10:09:54;100888.22;;;19.32;71.15
9325;BME280;4701;51.566;6.776;2023-05-09T10:12:57;100893.44;;;19.34;71.31
9325;BME280;4701;51.566;6.776;2023-05-09T10:16:00;100898.34;;;19.37;70.42
9325;BME280;4701;51.566;6.776;2023-05-09T10:19:02;100886.16;;;19.38;69.82
9325;BME280;4701;51.566;6.776;2023-05-09T10:22:08;100878.69;;;19.38;69.90
9325;BME280;4701;51.566;6.776;2023-05-09T10:25:13;100874.44;;;19.41;70.48
9325;BME280;4701;51.566;6.776;2023-05-09T10:28:21;100869.41;;;19.43;70.21
9325;BME280;4701;51.566;6.776;2023-05-09T10:31:25;100871.84;;;19.44;69.97
9325;BME280;4701;51.566;6.776;2023-05-09T10:34:30;100868.78;;;19.46;69.73
9325;BME280;4701;51.566;6.776;2023-05-09T10:37:36;100864.88;;;19.47;69.81
9325;BME280;4701;51.566;6.776;2023-05-09T10:40:39;100863.78;;;19.48;69.68
9325;BME280;4701;51.566;6.776;2023-05-09T10:43:41;100850.41;;;19.50;69.75
9325;BME280;4701;51.566;6.776;2023-05-09T10:46:44;100852.88;;;19.51;69.88
9325;BME280;4701;51.566;6.776;2023-05-09T10:49:47;100846.69;;;19.54;69.92
9325;BME280;4701;51.566;6.776;2023-05-09T10:53:08;100839.22;;;19.55;69.42
9325;BME280;4701;51.566;6.776;2023-05-09T10:56:24;100832.56;;;19.56;69.85
9325;BME280;4701;51.566;6.776;2023-05-09T10:59:37;100835.47;;;19.59;70.22
9325;BME280;4701;51.566;6.776;2023-05-09T11:02:39;100828.81;;;19.60;70.36
9325;BME280;4701;51.566;6.776;2023-05-09T11:05:41;100818.72;;;19.64;69.88
9325;BME280;4701;51.566;6.776;2023-05-09T11:08:44;100817.25;;;19.67;69.82
9325;BME280;4701;51.566;6.776;2023-05-09T11:11:53;100814.66;;;19.71;70.24
9325;BME280;4701;51.566;6.776;2023-05-09T11:15:03;100812.84;;;19.75;69.82
9325;BME280;4701;51.566;6.776;2023-05-09T11:18:06;100799.19;;;19.78;69.89
9325;BME280;4701;51.566;6.776;2023-05-09T11:21:10;100793.03;;;19.81;69.95
9325;BME280;4701;51.566;6.776;2023-05-09T11:24:17;100802.59;;;19.84;69.51
9325;BME280;4701;51.566;6.776;2023-05-09T11:27:20;100797.56;;;19.86;69.65
9325;BME280;4701;51.566;6.776;2023-05-09T11:30:34;100787.47;;;19.90;69.56
9325;BME280;4701;51.566;6.776;2023-05-09T11:33:36;100787.13;;;19.91;69.61
9325;BME280;4701;51.566;6.776;2023-05-09T11:36:41;100791.69;;;19.96;69.61
9325;BME280;4701;51.566;6.776;2023-05-09T11:39:57;100773.13;;;19.96;70.04
9325;BME280;4701;51.566;6.776;2023-05-09T11:42:59;100771.31;;;20.00;69.75
9325;BME280;4701;51.566;6.776;2023-05-09T11:46:02;100767.09;;;20.03;69.43
9325;BME280;4701;51.566;6.776;2023-05-09T11:49:05;100760.09;;;20.06;69.72
9325;BME280;4701;51.566;6.776;2023-05-09T11:52:07;100750.31;;;20.08;69.41
9325;BME280;4701;51.566;6.776;2023-05-09T11:55:12;100756.81;;;20.12;69.05
9325;BME280;4701;51.566;6.776;2023-05-09T11:58:14;100739.56;;;20.15;68.72
9325;BME280;4701;51.566;6.776;2023-05-09T12:01:16;100741.66;;;20.18;68.60
9325;BME280;4701;51.566;6.776;2023-05-09T12:04:18;100731.06;;;20.20;68.95
9325;BME280;4701;51.566;6.776;2023-05-09T12:07:20;100729.28;;;20.24;69.64
9325;BME280;4701;51.566;6.776;2023-05-09T12:10:23;100723.38;;;20.26;69.18
9325;BME280;4701;51.566;6.776;2023-05-09T12:13:25;100719.97;;;20.29;69.01
9325;BME280;4701;51.566;6.776;2023-05-09T12:16:27;100719.63;;;20.30;67.91
9325;BME280;4701;51.566;6.776;2023-05-09T12:19:29;100711.00;;;20.32;67.58
9325;BME280;4701;51.566;6.776;2023-05-09T12:22:31;100707.59;;;20.35;68.02
9325;BME280;4701;51.566;6.776;2023-05-09T12:25:35;100706.13;;;20.37;68.67
9325;BME280;4701;51.566;6.776;2023-05-09T12:28:37;100711.31;;;20.39;69.40
9325;BME280;4701;51.566;6.776;2023-05-09T12:31:40;100699.13;;;20.40;69.78
9325;BME280;4701;51.566;6.776;2023-05-09T12:34:42;100696.34;;;20.40;70.34
9325;BME280;4701;51.566;6.776;2023-05-09T12:37:54;100699.56;;;20.42;70.92
9325;BME280;4701;51.566;6.776;2023-05-09T12:41:04;100691.25;;;20.42;70.38
9325;BME280;4701;51.566;6.776;2023-05-09T12:44:06;100678.94;;;20.39;70.18
9325;BME280;4701;51.566;6.776;2023-05-09T12:47:11;100675.66;;;20.37;70.00
9325;BME280;4701;51.566;6.776;2023-05-09T12:50:13;100689.03;;;20.35;69.83
9325;BME280;4701;51.566;6.776;2023-05-09T12:53:22;100697.16;;;20.32;70.00
9325;BME280;4701;51.566;6.776;2023-05-09T12:56:26;100692.28;;;20.29;70.05
9325;BME280;4701;51.566;6.776;2023-05-09T12:59:27;100695.59;;;20.22;70.12
9325;BME280;4701;51.566;6.776;2023-05-09T13:02:33;100689.75;;;20.15;70.56
9325;BME280;4701;51.566;6.776;2023-05-09T13:05:35;100696.59;;;20.09;70.77
9325;BME280;4701;51.566;6.776;2023-05-09T13:08:37;100700.69;;;20.03;71.28
9325;BME280;4701;51.566;6.776;2023-05-09T13:11:41;100706.75;;;19.96;71.86
9325;BME280;4701;51.566;6.776;2023-05-09T13:14:42;100703.00;;;19.92;72.14
9325;BME280;4701;51.566;6.776;2023-05-09T13:17:45;100697.50;;;19.84;72.45
9325;BME280;4701;51.566;6.776;2023-05-09T13:20:47;100710.69;;;19.78;72.59
9325;BME280;4701;51.566;6.776;2023-05-09T13:23:49;100723.09;;;19.72;73.40
9325;BME280;4701;51.566;6.776;2023-05-09T13:26:52;100708.59;;;19.67;74.00
9325;BME280;4701;51.566;6.776;2023-05-09T13:29:54;100711.38;;;19.58;74.45
9325;BME280;4701;51.566;6.776;2023-05-09T13:32:56;100699.19;;;19.50;75.33
9325;BME280;4701;51.566;6.776;2023-05-09T13:35:58;100702.75;;;19.42;76.04
9325;BME280;4701;51.566;6.776;2023-05-09T13:39:00;100700.00;;;19.34;76.50
9325;BME280;4701;51.566;6.776;2023-05-09T13:42:04;100690.88;;;19.24;76.84
9325;BME280;4701;51.566;6.776;2023-05-09T13:45:07;100703.88;;;19.15;77.27
9325;BME280;4701;51.566;6.776;2023-05-09T13:48:09;100694.78;;;19.06;77.52
9325;BME280;4701;51.566;6.776;2023-05-09T13:51:11;100693.97;;;18.97;77.92
9325;BME280;4701;51.566;6.776;2023-05-09T13:54:13;100691.69;;;18.90;78.21
9325;BME280;4701;51.566;6.776;2023-05-09T13:57:19;100690.88;;;18.81;78.45
9325;BME280;4701;51.566;6.776;2023-05-09T14:00:21;100686.97;;;18.74;78.68
9325;BME280;4701;51.566;6.776;2023-05-09T14:03:24;100680.78;;;18.68;78.99
9325;BME280;4701;51.566;6.776;2023-05-09T14:06:26;100682.09;;;18.62;79.55
9325;BME280;4701;51.566;6.776;2023-05-09T14:09:28;100675.88;;;18.57;79.52
9325;BME280;4701;51.566;6.776;2023-05-09T14:12:31;100672.13;;;18.52;79.83
9325;BME280;4701;51.566;6.776;2023-05-09T14:15:33;100672.25;;;18.47;80.12
9325;BME280;4701;51.566;6.776;2023-05-09T14:18:35;100661.88;;;18.44;80.33
9325;BME280;4701;51.566;6.776;2023-05-09T14:21:37;100666.09;;;18.42;80.32
9325;BME280;4701;51.566;6.776;2023-05-09T14:24:39;100660.06;;;18.40;80.91
9325;BME280;4701;51.566;6.776;2023-05-09T14:27:42;100655.22;;;18.37;80.84
9325;BME280;4701;51.566;6.776;2023-05-09T14:30:44;100648.38;;;18.34;80.99
9325;BME280;4701;51.566;6.776;2023-05-09T14:33:46;100646.25;;;18.31;81.06
9325;BME280;4701;51.566;6.776;2023-05-09T14:36:48;100643.81;;;18.30;81.29
9325;BME280;4701;51.566;6.776;2023-05-09T14:39:50;100641.41;;;18.28;81.43
9325;BME280;4701;51.566;6.776;2023-05-09T14:42:53;100642.53;;;18.27;81.71
9325;BME280;4701;51.566;6.776;2023-05-09T14:45:55;100646.41;;;18.26;81.79
9325;BME280;4701;51.566;6.776;2023-05-09T14:48:57;100632.94;;;18.25;82.13
9325;BME280;4701;51.566;6.776;2023-05-09T14:52:03;100634.88;;;18.24;82.17
9325;BME280;4701;51.566;6.776;2023-05-09T14:55:06;100632.94;;;18.25;82.53
9325;BME280;4701;51.566;6.776;2023-05-09T14:58:09;100624.16;;;18.23;82.51
9325;BME280;4701;51.566;6.776;2023-05-09T15:01:12;100621.72;;;18.21;82.93
9325;BME280;4701;51.566;6.776;2023-05-09T15:04:15;100621.72;;;18.21;83.03
9325;BME280;4701;51.566;6.776;2023-05-09T15:07:17;100624.00;;;18.19;83.13
9325;BME280;4701;51.566;6.776;2023-05-09T15:10:19;100621.88;;;18.16;83.29
9325;BME280;4701;51.566;6.776;2023-05-09T15:13:22;100623.81;;;18.15;83.61
9325;BME280;4701;51.566;6.776;2023-05-09T15:16:24;100641.00;;;18.12;83.71
9325;BME280;4701;51.566;6.776;2023-05-09T15:19:25;100634.81;;;18.07;83.76
9325;BME280;4701;51.566;6.776;2023-05-09T15:22:30;100617.63;;;18.01;83.38
9325;BME280;4701;51.566;6.776;2023-05-09T15:25:33;100624.06;;;17.97;83.33
9325;BME280;4701;51.566;6.776;2023-05-09T15:28:36;100634.13;;;17.93;83.63
9325;BME280;4701;51.566;6.776;2023-05-09T15:31:38;100621.59;;;17.87;83.64
9325;BME280;4701;51.566;6.776;2023-05-09T15:34:40;100619.00;;;17.82;83.57
9325;BME280;4701;51.566;6.776;2023-05-09T15:37:42;100609.75;;;17.77;83.70
9325;BME280;4701;51.566;6.776;2023-05-09T15:40:43;100611.00;;;17.71;83.68
9325;BME280;4701;51.566;6.776;2023-05-09T15:43:47;100617.97;;;17.69;83.95
9325;BME280;4701;51.566;6.776;2023-05-09T15:46:48;100616.16;;;17.64;83.98
9325;BME280;4701;51.566;6.776;2023-05-09T15:49:50;100605.25;;;17.59;83.84
9325;BME280;4701;51.566;6.776;2023-05-09T15:52:52;100607.50;;;17.57;84.17
9325;BME280;4701;51.566;6.776;2023-05-09T15:55:54;100601.31;;;17.52;84.05
9325;BME280;4701;51.566;6.776;2023-05-09T15:58:58;100592.03;;;17.48;84.42
9325;BME280;4701;51.566;6.776;2023-05-09T16:02:00;100591.06;;;17.44;84.55
9325;BME280;4701;51.566;6.776;2023-05-09T16:05:02;100584.22;;;17.41;84.66
9325;BME280;4701;51.566;6.776;2023-05-09T16:08:04;100581.78;;;17.39;84.86
9325;BME280;4701;51.566;6.776;2023-05-09T16:11:06;100574.50;;;17.35;84.84
9325;BME280;4701;51.566;6.776;2023-05-09T16:14:09;100578.97;;;17.31;84.95
9325;BME280;4701;51.566;6.776;2023-05-09T16:17:12;100569.41;;;17.28;85.17
9325;BME280;4701;51.566;6.776;2023-05-09T16:20:14;100581.53;;;17.27;85.21
9325;BME280;4701;51.566;6.776;2023-05-09T16:23:16;100562.09;;;17.24;85.25
9325;BME280;4701;51.566;6.776;2023-05-09T16:26:18;100570.38;;;17.24;85.65
9325;BME280;4701;51.566;6.776;2023-05-09T16:29:22;100566.28;;;17.21;85.79
9325;BME280;4701;51.566;6.776;2023-05-09T16:32:24;100563.84;;;17.20;85.87
9325;BME280;4701;51.566;6.776;2023-05-09T16:35:26;100571.63;;;17.18;86.01
9325;BME280;4701;51.566;6.776;2023-05-09T16:38:28;100570.00;;;17.17;85.85
9325;BME280;4701;51.566;6.776;2023-05-09T16:41:30;100569.50;;;17.15;86.00
9325;BME280;4701;51.566;6.776;2023-05-09T16:44:33;100565.41;;;17.12;85.97
9325;BME280;4701;51.566;6.776;2023-05-09T16:47:35;100562.16;;;17.10;86.01
9325;BME280;4701;51.566;6.776;2023-05-09T16:50:37;100569.63;;;17.10;86.04
9325;BME280;4701;51.566;6.776;2023-05-09T16:53:42;100562.00;;;17.07;86.30
9325;BME280;4701;51.566;6.776;2023-05-09T16:56:44;100554.34;;;17.03;86.29
9325;BME280;4701;51.566;6.776;2023-05-09T16:59:47;100560.50;;;17.00;86.15
9325;BME280;4701;51.566;6.776;2023-05-09T17:02:49;100551.75;;;16.98;86.48
9325;BME280;4701;51.566;6.776;2023-05-09T17:05:51;100549.09;;;16.93;86.53
9325;BME280;4701;51.566;6.776;2023-05-09T17:08:53;100553.00;;;16.92;86.52
9325;BME280;4701;51.566;6.776;2023-05-09T17:11:55;100547.59;;;16.87;86.24
9325;BME280;4701;51.566;6.776;2023-05-09T17:14:58;100547.44;;;16.84;86.10
9325;BME280;4701;51.566;6.776;2023-05-09T17:18:00;100545.59;;;16.79;85.90
9325;BME280;4701;51.566;6.776;2023-05-09T17:21:02;100554.81;;;16.75;85.78
9325;BME280;4701;51.566;6.776;2023-05-09T17:24:05;100550.72;;;16.72;85.86
9325;BME280;4701;51.566;6.776;2023-05-09T17:27:06;100541.78;;;16.67;85.45
9325;BME280;4701;51.566;6.776;2023-05-09T17:30:12;100539.97;;;16.62;85.21
9325;BME280;4701;51.566;6.776;2023-05-09T17:33:14;100536.19;;;16.58;85.30
9325;BME280;4701;51.566;6.776;2023-05-09T17:36:15;100543.44;;;16.54;85.38
9325;BME280;4701;51.566;6.776;2023-05-09T17:39:17;100538.06;;;16.49;85.78
9325;BME280;4701;51.566;6.776;2023-05-09T17:42:19;100533.16;;;16.46;85.76
9325;BME280;4701;51.566;6.776;2023-05-09T17:45:23;100529.41;;;16.42;85.95
9325;BME280;4701;51.566;6.776;2023-05-09T17:48:24;100526.78;;;16.37;86.17
9325;BME280;4701;51.566;6.776;2023-05-09T17:51:26;100527.38;;;16.34;86.28
9325;BME280;4701;51.566;6.776;2023-05-09T17:54:28;100527.72;;;16.32;86.51
9325;BME280;4701;51.566;6.776;2023-05-09T17:57:30;100521.19;;;16.28;86.54
9325;BME280;4701;51.566;6.776;2023-05-09T18:00:34;100524.56;;;16.25;86.55
9325;BME280;4701;51.566;6.776;2023-05-09T18:03:35;100517.75;;;16.22;86.56
9325;BME280;4701;51.566;6.776;2023-05-09T18:06:38;100512.88;;;16.19;86.50
9325;BME280;4701;51.566;6.776;2023-05-09T18:09:40;100518.66;;;16.18;86.75
9325;BME280;4701;51.566;6.776;2023-05-09T18:12:42;100525.28;;;16.17;86.74
9325;BME280;4701;51.566;6.776;2023-05-09T18:15:46;100524.00;;;16.14;86.74
9325;BME280;4701;51.566;6.776;2023-05-09T18:18:48;100538.56;;;16.15;87.18
9325;BME280;4701;51.566;6.776;2023-05-09T18:21:50;100525.13;;;16.13;87.50
9325;BME280;4701;51.566;6.776;2023-05-09T18:24:52;100519.63;;;16.13;87.56
9325;BME280;4701;51.566;6.776;2023-05-09T18:27:54;100513.31;;;16.13;87.54
9325;BME280;4701;51.566;6.776;2023-05-09T18:30:58;100514.41;;;16.12;87.89
9325;BME280;4701;51.566;6.776;2023-05-09T18:34:00;100515.53;;;16.11;87.63
9325;BME280;4701;51.566;6.776;2023-05-09T18:37:02;100511.47;;;16.08;88.05
9325;BME280;4701;51.566;6.776;2023-05-09T18:40:05;100504.38;;;16.07;87.62
9325;BME280;4701;51.566;6.776;2023-05-09T18:43:10;100502.72;;;16.06;87.71
9325;BME280;4701;51.566;6.776;2023-05-09T18:46:13;100507.41;;;16.06;87.71
9325;BME280;4701;51.566;6.776;2023-05-09T18:49:16;100506.59;;;16.05;87.62
9325;BME280;4701;51.566;6.776;2023-05-09T18:52:18;100504.97;;;16.04;87.80
9325;BME280;4701;51.566;6.776;2023-05-09T18:55:22;100510.16;;;16.06;88.00
9325;BME280;4701;51.566;6.776;2023-05-09T18:58:23;100508.53;;;16.05;88.10
9325;BME280;4701;51.566;6.776;2023-05-09T19:01:27;100506.09;;;16.03;88.15
9325;BME280;4701;51.566;6.776;2023-05-09T19:04:28;100497.03;;;16.03;88.22
9325;BME280;4701;51.566;6.776;2023-05-09T19:07:30;100498.66;;;16.04;88.41
9325;BME280;4701;51.566;6.776;2023-05-09T19:10:33;100497.84;;;16.03;88.53
9325;BME280;4701;51.566;6.776;2023-05-09T19:13:37;100506.09;;;16.03;88.15
9325;BME280;4701;51.566;6.776;2023-05-09T19:16:41;100508.84;;;16.03;88.31
9325;BME280;4701;51.566;6.776;2023-05-09T19:19:43;100509.66;;;16.04;88.50
9325;BME280;4701;51.566;6.776;2023-05-09T19:22:45;100510.78;;;16.03;88.74
9325;BME280;4701;51.566;6.776;2023-05-09T19:25:51;100508.03;;;16.03;88.88
9325;BME280;4701;51.566;6.776;2023-05-09T19:28:53;100508.31;;;16.01;88.72
9325;BME280;4701;51.566;6.776;2023-05-09T19:31:56;100509.44;;;16.00;88.80
9325;BME280;4701;51.566;6.776;2023-05-09T19:34:58;100512.19;;;16.00;88.91
9325;BME280;4701;51.566;6.776;2023-05-09T19:38:00;100510.06;;;15.97;88.77
9325;BME280;4701;51.566;6.776;2023-05-09T19:41:01;100510.88;;;15.98;88.87
9325;BME280;4701;51.566;6.776;2023-05-09T19:44:04;100507.63;;;15.96;89.33
9325;BME280;4701;51.566;6.776;2023-05-09T19:47:07;100506.00;;;15.95;89.00
9325;BME280;4701;51.566;6.776;2023-05-09T19:50:09;100498.06;;;15.93;89.12
9325;BME280;4701;51.566;6.776;2023-05-09T19:53:11;100510.50;;;15.91;89.13
9325;BME280;4701;51.566;6.776;2023-05-09T19:56:13;100505.00;;;15.91;89.03
9325;BME280;4701;51.566;6.776;2023-05-09T19:59:15;100508.06;;;15.89;88.86
9325;BME280;4701;51.566;6.776;2023-05-09T20:02:18;100505.31;;;15.89;89.02
9325;BME280;4701;51.566;6.776;2023-05-09T20:05:20;100502.56;;;15.89;89.27
9325;BME280;4701;51.566;6.776;2023-05-09T20:08:22;100500.09;;;15.87;89.31
9325;BME280;4701;51.566;6.776;2023-05-09T20:11:25;100499.28;;;15.87;89.24
9325;BME280;4701;51.566;6.776;2023-05-09T20:14:27;100503.97;;;15.86;89.26
9325;BME280;4701;51.566;6.776;2023-05-09T20:17:30;100499.59;;;15.85;89.17
9325;BME280;4701;51.566;6.776;2023-05-09T20:20:32;100498.78;;;15.85;89.25
9325;BME280;4701;51.566;6.776;2023-05-09T20:23:34;100499.59;;;15.85;89.68
9325;BME280;4701;51.566;6.776;2023-05-09T20:26:36;100488.91;;;15.84;89.98
9325;BME280;4701;51.566;6.776;2023-05-09T20:29:38;100493.28;;;15.85;89.97
9325;BME280;4701;51.566;6.776;2023-05-09T20:32:42;100482.94;;;15.82;90.12
9325;BME280;4701;51.566;6.776;2023-05-09T20:35:43;100485.69;;;15.82;90.15
9325;BME280;4701;51.566;6.776;2023-05-09T20:38:46;100479.66;;;15.80;90.27
9325;BME280;4701;51.566;6.776;2023-05-09T20:41:49;100481.59;;;15.79;90.48
9325;BME280;4701;51.566;6.776;2023-05-09T20:44:51;100478.03;;;15.79;90.65
9325;BME280;4701;51.566;6.776;2023-05-09T20:47:55;100485.47;;;15.78;90.94
9325;BME280;4701;51.566;6.776;2023-05-09T20:50:58;100486.88;;;15.76;91.00
9325;BME280;4701;51.566;6.776;2023-05-09T20:54:00;100480.88;;;15.74;90.96
9325;BME280;4701;51.566;6.776;2023-05-09T20:57:02;100491.06;;;15.73;90.61
9325;BME280;4701;51.566;6.776;2023-05-09T21:00:05;100478.75;;;15.71;90.65
